createdAt,value
2022-11-23T00:02:54.782Z,7.94
2022-11-23T00:07:48.246Z,7.90
2022-11-23T00:12:43.150Z,7.76
2022-11-23T00:17:42.062Z,7.81
2022-11-23T00:22:39.132Z,7.73
2022-11-23T00:27:32.324Z,7.73
2022-11-23T00:32:25.438Z,7.74
2022-11-23T00:37:16.459Z,7.84
2022-11-23T00:42:15.863Z,7.84
2022-11-23T00:47:15.363Z,7.90
2022-11-23T00:52:09.367Z,7.94
2022-11-23T00:57:00.396Z,7.93
2022-11-23T01:01:56.455Z,7.91
2022-11-23T01:06:56.142Z,7.67
2022-11-23T01:11:47.532Z,7.83
2022-11-23T01:16:42.654Z,7.77
2022-11-23T01:21:39.013Z,7.62
2022-11-23T01:26:32.648Z,7.55
2022-11-23T01:31:28.295Z,7.56
2022-11-23T01:36:21.137Z,7.50
2022-11-23T01:41:19.609Z,7.39
2022-11-23T01:46:12.418Z,7.31
2022-11-23T01:51:12.025Z,7.30
2022-11-23T01:56:06.760Z,7.27
2022-11-23T02:01:03.356Z,7.28
2022-11-23T02:06:01.333Z,7.25
2022-11-23T02:10:52.821Z,7.30
2022-11-23T02:15:45.555Z,7.28
2022-11-23T02:20:42.950Z,7.40
2022-11-23T02:25:44.606Z,7.41
2022-11-23T02:30:43.065Z,7.46
2022-11-23T02:35:51.240Z,7.61
2022-11-23T02:40:42.629Z,7.63
2022-11-23T02:45:45.198Z,7.65
2022-11-23T02:50:36.935Z,7.68
2022-11-23T02:55:28.380Z,7.70
2022-11-23T03:00:21.140Z,7.74
2022-11-23T03:05:22.630Z,7.83
2022-11-23T03:10:17.398Z,7.93
2022-11-23T03:15:11.284Z,7.93
2022-11-23T03:20:08.172Z,7.95
2022-11-23T03:25:06.296Z,8.05
2022-11-23T03:29:59.516Z,8.09
2022-11-23T03:34:53.017Z,8.06
2022-11-23T03:39:47.707Z,8.07
2022-11-23T03:45:01.467Z,8.10
2022-11-23T03:49:59.025Z,8.12
2022-11-23T03:54:50.572Z,8.12
2022-11-23T03:59:43.738Z,8.11
2022-11-23T04:04:40.204Z,8.23
2022-11-23T04:09:53.475Z,8.25
2022-11-23T04:14:54.317Z,8.27
2022-11-23T04:19:50.734Z,8.26
2022-11-23T04:24:42.470Z,8.22
2022-11-23T04:29:34.191Z,8.27
2022-11-23T04:34:26.330Z,8.22
2022-11-23T04:39:23.955Z,8.22
2022-11-23T04:44:37.059Z,8.22
2022-11-23T04:49:31.007Z,8.24
2022-11-23T04:54:26.253Z,8.16
2022-11-23T04:59:32.240Z,8.19
2022-11-23T05:04:23.801Z,8.15
2022-11-23T05:09:15.490Z,8.10
2022-11-23T05:14:29.949Z,7.95
2022-11-23T05:19:25.576Z,7.98
2022-11-23T05:24:36.974Z,7.97
2022-11-23T05:29:37.959Z,7.97
2022-11-23T05:34:31.537Z,7.91
2022-11-23T05:39:23.917Z,7.90
2022-11-23T05:44:21.893Z,7.93
2022-11-23T05:49:18.117Z,7.92
2022-11-23T05:54:13.160Z,7.91
2022-11-23T05:59:11.885Z,7.86
2022-11-23T06:04:07.078Z,7.79
2022-11-23T06:09:22.614Z,7.65
2022-11-23T06:14:18.907Z,7.50
2022-11-23T06:19:11.696Z,7.47
2022-11-23T06:24:11.073Z,7.25
2022-11-23T06:29:07.130Z,7.30
2022-11-23T06:34:01.738Z,7.25
2022-11-23T06:38:56.810Z,7.07
2022-11-23T06:43:57.886Z,7.13
2022-11-23T06:48:59.721Z,7.10
2022-11-23T06:53:50.987Z,7.09
2022-11-23T06:58:45.967Z,7.09
2022-11-23T07:03:48.969Z,7.12
2022-11-23T07:09:03.433Z,7.16
2022-11-23T07:14:18.126Z,7.14
2022-11-23T07:19:17.486Z,7.34
2022-11-23T07:24:17.098Z,7.40
2022-11-23T07:29:09.801Z,7.45
2022-11-23T07:34:03.690Z,7.50
2022-11-23T07:39:03.193Z,7.55
2022-11-23T07:43:55.619Z,7.45
2022-11-23T07:48:49.947Z,7.51
2022-11-23T07:53:44.121Z,7.58
2022-11-23T07:58:43.680Z,7.60
2022-11-23T08:03:35.857Z,7.67
2022-11-23T08:08:32.465Z,7.68
2022-11-23T08:13:25.933Z,7.78
2022-11-23T08:18:20.634Z,7.80
2022-11-23T08:23:17.212Z,7.83
2022-11-23T08:28:10.228Z,7.96
2022-11-23T08:33:02.267Z,7.96
2022-11-23T08:38:07.705Z,8.02
2022-11-23T08:42:59.269Z,7.99
2022-11-23T08:47:50.700Z,7.89
2022-11-23T08:52:42.871Z,7.78
2022-11-23T08:57:39.047Z,7.78
2022-11-23T09:02:30.174Z,7.68
2022-11-23T09:07:21.342Z,7.69
2022-11-23T09:12:14.311Z,7.68
2022-11-23T09:17:11.219Z,7.63
2022-11-23T09:22:02.258Z,7.67
2022-11-23T09:26:54.549Z,7.65
2022-11-23T09:31:46.345Z,7.88
2022-11-23T09:36:41.643Z,8.60
2022-11-23T09:42:06.369Z,9.29
2022-11-23T09:47:10.320Z,9.65
2022-11-23T09:52:04.777Z,9.98
2022-11-23T09:57:02.812Z,9.93
2022-11-23T10:02:01.035Z,9.50
2022-11-23T10:07:01.779Z,9.28
2022-11-23T10:12:38.585Z,9.06
2022-11-23T10:17:51.630Z,8.78
2022-11-23T10:22:50.509Z,8.54
2022-11-23T10:27:50.615Z,8.49
2022-11-23T10:32:51.791Z,8.36
2022-11-23T10:37:53.300Z,8.31
2022-11-23T10:42:51.298Z,8.19
2022-11-23T10:47:45.235Z,8.15
2022-11-23T10:52:37.473Z,8.22
2022-11-23T10:57:38.315Z,8.41
2022-11-23T11:02:36.287Z,8.54
2022-11-23T11:07:31.091Z,8.71
2022-11-23T11:12:26.431Z,8.83
2022-11-23T11:17:31.729Z,8.82
2022-11-23T11:22:37.077Z,8.99
2022-11-23T11:27:30.771Z,9.06
2022-11-23T11:32:29.631Z,9.18
2022-11-23T11:37:38.905Z,9.21
2022-11-23T11:42:41.379Z,9.25
2022-11-23T11:47:37.488Z,9.27
2022-11-23T11:52:43.570Z,9.45
2022-11-23T11:57:42.261Z,9.47
2022-11-23T12:02:39.746Z,9.66
2022-11-23T12:07:41.143Z,9.64
2022-11-23T12:12:32.754Z,9.55
2022-11-23T12:17:47.314Z,9.53
2022-11-23T12:22:59.203Z,9.50
2022-11-23T12:28:03.920Z,9.55
2022-11-23T12:33:33.001Z,9.61
2022-11-23T12:38:55.393Z,9.57
2022-11-23T12:44:07.230Z,9.53
2022-11-23T12:49:17.018Z,9.51
2022-11-23T12:54:33.451Z,9.47
2022-11-23T12:59:37.345Z,9.49
2022-11-23T13:05:20.964Z,9.31
2022-11-23T13:10:31.325Z,9.11
2022-11-23T13:15:41.578Z,8.82
2022-11-23T13:21:06.294Z,8.81
2022-11-23T13:26:25.626Z,8.67
2022-11-23T13:31:33.750Z,8.56
2022-11-23T13:42:06.089Z,8.48
2022-11-23T13:47:05.920Z,8.34
2022-11-23T13:52:12.965Z,8.35
2022-11-23T13:57:18.997Z,8.38
2022-11-23T14:02:36.863Z,8.34
2022-11-23T14:07:33.658Z,8.34
2022-11-23T14:12:36.397Z,8.30
2022-11-23T14:17:54.341Z,8.27
2022-11-23T14:22:59.232Z,8.24
2022-11-23T14:28:07.968Z,8.27
2022-11-23T14:33:18.920Z,8.25
2022-11-23T14:38:48.136Z,8.23
2022-11-23T14:43:48.489Z,8.22
2022-11-23T14:48:42.702Z,8.24
2022-11-23T14:53:41.504Z,8.16
2022-11-23T14:58:39.490Z,8.23
2022-11-23T15:03:50.418Z,8.24
2022-11-23T15:08:49.829Z,8.25
2022-11-23T15:13:49.684Z,8.29
2022-11-23T15:18:43.780Z,8.22
2022-11-23T15:23:42.627Z,8.31
2022-11-23T15:28:41.132Z,8.30
2022-11-23T15:33:34.638Z,8.26
2022-11-23T15:38:35.029Z,8.34
2022-11-23T15:43:35.302Z,8.28
2022-11-23T15:48:33.688Z,8.36
2022-11-23T15:53:32.673Z,8.35
2022-11-23T15:58:25.532Z,8.36
2022-11-23T16:03:36.952Z,8.30
2022-11-23T16:08:32.986Z,8.38
2022-11-23T16:13:41.620Z,8.40
2022-11-23T16:18:41.721Z,8.35
2022-11-23T16:23:46.429Z,8.32
2022-11-23T16:28:40.091Z,8.43
2022-11-23T16:33:31.299Z,8.31
2022-11-23T16:38:26.969Z,8.30
2022-11-23T16:43:22.038Z,8.27
2022-11-23T16:48:43.123Z,8.37
2022-11-23T16:54:12.044Z,8.30
2022-11-23T16:58:59.406Z,8.24
2022-11-23T17:03:51.873Z,8.20
2022-11-23T17:08:43.244Z,8.16
2022-11-23T17:13:43.326Z,8.11
2022-11-23T17:18:40.211Z,8.06
2022-11-23T17:23:44.507Z,8.07
2022-11-23T17:28:35.680Z,8.01
2022-11-23T17:33:26.668Z,8.03
2022-11-23T17:38:27.372Z,8.01
2022-11-23T17:43:22.584Z,7.93
2022-11-23T17:48:19.823Z,7.84
2022-11-23T17:53:13.335Z,7.84
2022-11-23T17:58:13.861Z,7.88
2022-11-23T18:03:04.830Z,7.79
2022-11-23T18:08:01.128Z,7.68
2022-11-23T18:12:56.354Z,7.75
2022-11-23T18:18:07.983Z,7.68
2022-11-23T18:22:59.259Z,7.69
2022-11-23T18:27:51.210Z,7.63
2022-11-23T18:32:44.910Z,7.54
2022-11-23T18:37:43.020Z,7.45
2022-11-23T18:42:34.222Z,7.47
2022-11-23T18:47:24.778Z,7.42
2022-11-23T18:52:22.123Z,7.39
2022-11-23T18:57:22.893Z,7.35
2022-11-23T19:02:17.070Z,7.28
2022-11-23T19:07:11.513Z,7.29
2022-11-23T19:12:03.237Z,7.25
2022-11-23T19:16:57.322Z,7.29
2022-11-23T19:21:47.909Z,7.28
2022-11-23T19:26:47.250Z,7.29
2022-11-23T19:31:39.001Z,7.33
2022-11-23T19:36:41.287Z,7.35
2022-11-23T19:41:34.835Z,7.37
2022-11-23T19:46:35.852Z,7.45
2022-11-23T19:51:33.777Z,7.43
2022-11-23T19:56:32.054Z,7.42
2022-11-23T20:01:27.918Z,7.36
2022-11-23T20:06:22.318Z,7.43
2022-11-23T20:11:16.083Z,7.52
2022-11-23T20:16:12.890Z,7.47
2022-11-23T20:21:06.669Z,7.61
2022-11-23T20:26:00.531Z,7.69
2022-11-23T20:30:51.917Z,7.64
2022-11-23T20:35:46.237Z,7.66
2022-11-23T20:40:39.122Z,7.62
2022-11-23T20:45:31.019Z,7.60
2022-11-23T20:50:29.344Z,7.49
2022-11-23T20:55:24.435Z,7.56
2022-11-23T21:00:21.874Z,7.57
2022-11-23T21:05:16.114Z,7.59
2022-11-23T21:10:09.550Z,7.49
2022-11-23T21:15:06.438Z,7.57
2022-11-23T21:19:57.536Z,7.59
2022-11-23T21:24:51.227Z,7.58
2022-11-23T21:29:44.473Z,7.63
2022-11-23T21:34:38.723Z,7.63
2022-11-23T21:39:30.749Z,7.53
2022-11-23T21:44:25.329Z,7.62
2022-11-23T21:49:16.621Z,7.74
2022-11-23T21:54:14.513Z,7.68
2022-11-23T21:59:06.104Z,7.75
2022-11-23T22:03:59.779Z,7.82
2022-11-23T22:08:52.791Z,7.82
2022-11-23T22:13:47.693Z,7.84
2022-11-23T22:18:42.779Z,7.81
2022-11-23T22:23:33.631Z,7.88
2022-11-23T22:28:27.548Z,7.88
2022-11-23T22:33:21.546Z,7.88
2022-11-23T22:38:12.708Z,7.89
2022-11-23T22:43:07.735Z,7.90
2022-11-23T22:48:05.084Z,7.92
2022-11-23T22:53:06.700Z,7.95
2022-11-23T22:57:57.920Z,8.02
2022-11-23T23:02:49.201Z,8.03
2022-11-23T23:07:44.111Z,8.17
2022-11-23T23:12:39.125Z,8.25
2022-11-23T23:17:31.232Z,8.25
2022-11-23T23:22:24.290Z,8.15
2022-11-23T23:27:18.584Z,8.00
2022-11-23T23:32:13.925Z,7.99
2022-11-23T23:37:11.549Z,7.99
2022-11-23T23:42:10.194Z,7.87
2022-11-23T23:47:01.863Z,7.85
2022-11-23T23:51:55.756Z,7.90
2022-11-23T23:56:47.228Z,7.86
